sensor_id;sensor_type;location;lat;lon;timestamp;temperature;humidity
16066;DHT22;8137;48.952;8.970;2023-07-20T00:01:35;19.40;99.90
16066;DHT22;8137;48.952;8.970;2023-07-20T00:04:01;19.40;99.90
16066;DHT22;8137;48.952;8.970;2023-07-20T00:06:27;19.40;99.90
16066;DHT22;8137;48.952;8.970;2023-07-20T00:08:53;19.30;99.90
16066;DHT22;8137;48.952;8.970;2023-07-20T00:11:20;19.20;99.90
16066;DHT22;8137;48.952;8.970;2023-07-20T00:13:45;19.20;99.90
16066;DHT22;8137;48.952;8.970;2023-07-20T00:16:11;19.20;99.90
16066;DHT22;8137;48.952;8.970;2023-07-20T00:18:36;19.10;99.90
16066;DHT22;8137;48.952;8.970;2023-07-20T00:21:02;19.10;99.90
16066;DHT22;8137;48.952;8.970;2023-07-20T00:23:28;19.10;99.90
16066;DHT22;8137;48.952;8.970;2023-07-20T00:25:54;19.20;99.90
16066;DHT22;8137;48.952;8.970;2023-07-20T00:28:20;19.20;99.90
16066;DHT22;8137;48.952;8.970;2023-07-20T00:30:45;19.20;99.90
16066;DHT22;8137;48.952;8.970;2023-07-20T00:33:12;19.20;99.90
16066;DHT22;8137;48.952;8.970;2023-07-20T00:35:38;19.10;99.90
16066;DHT22;8137;48.952;8.970;2023-07-20T00:38:04;19.10;99.90
16066;DHT22;8137;48.952;8.970;2023-07-20T00:40:37;19.00;99.90
16066;DHT22;8137;48.952;8.970;2023-07-20T00:43:03;19.00;99.90
16066;DHT22;8137;48.952;8.970;2023-07-20T00:45:29;18.90;99.90
16066;DHT22;8137;48.952;8.970;2023-07-20T00:47:56;18.90;99.90
16066;DHT22;8137;48.952;8.970;2023-07-20T00:50:23;18.80;99.90
16066;DHT22;8137;48.952;8.970;2023-07-20T00:52:49;18.80;99.90
16066;DHT22;8137;48.952;8.970;2023-07-20T00:55:18;18.70;99.90
16066;DHT22;8137;48.952;8.970;2023-07-20T00:57:44;18.80;99.90
16066;DHT22;8137;48.952;8.970;2023-07-20T01:00:10;18.80;99.90
16066;DHT22;8137;48.952;8.970;2023-07-20T01:02:36;18.70;99.90
16066;DHT22;8137;48.952;8.970;2023-07-20T01:05:04;18.70;99.90
16066;DHT22;8137;48.952;8.970;2023-07-20T01:10:23;18.60;99.90
16066;DHT22;8137;48.952;8.970;2023-07-20T01:12:55;18.60;99.90
16066;DHT22;8137;48.952;8.970;2023-07-20T01:15:21;18.60;99.90
16066;DHT22;8137;48.952;8.970;2023-07-20T01:17:47;18.50;99.90
16066;DHT22;8137;48.952;8.970;2023-07-20T01:20:14;18.50;99.90
16066;DHT22;8137;48.952;8.970;2023-07-20T01:23:00;18.50;99.90
16066;DHT22;8137;48.952;8.970;2023-07-20T01:31:25;18.50;99.90
16066;DHT22;8137;48.952;8.970;2023-07-20T01:33:54;18.40;99.90
16066;DHT22;8137;48.952;8.970;2023-07-20T01:36:23;18.40;99.90
16066;DHT22;8137;48.952;8.970;2023-07-20T01:38:52;18.40;99.90
16066;DHT22;8137;48.952;8.970;2023-07-20T01:41:18;18.30;99.90
16066;DHT22;8137;48.952;8.970;2023-07-20T01:43:44;18.30;99.90
16066;DHT22;8137;48.952;8.970;2023-07-20T01:46:09;18.30;99.90
16066;DHT22;8137;48.952;8.970;2023-07-20T01:48:35;18.10;99.90
16066;DHT22;8137;48.952;8.970;2023-07-20T01:51:00;18.10;99.90
16066;DHT22;8137;48.952;8.970;2023-07-20T01:53:26;18.10;99.90
16066;DHT22;8137;48.952;8.970;2023-07-20T01:55:54;18.10;99.90
16066;DHT22;8137;48.952;8.970;2023-07-20T01:58:20;18.10;99.90
16066;DHT22;8137;48.952;8.970;2023-07-20T02:00:46;18.10;99.90
16066;DHT22;8137;48.952;8.970;2023-07-20T02:03:12;18.10;99.90
16066;DHT22;8137;48.952;8.970;2023-07-20T02:05:38;18.00;99.90
16066;DHT22;8137;48.952;8.970;2023-07-20T02:08:03;18.00;99.90
16066;DHT22;8137;48.952;8.970;2023-07-20T02:10:29;18.10;99.90
16066;DHT22;8137;48.952;8.970;2023-07-20T02:12:54;18.00;99.90
16066;DHT22;8137;48.952;8.970;2023-07-20T02:15:21;18.10;99.90
16066;DHT22;8137;48.952;8.970;2023-07-20T02:17:46;18.10;99.90
16066;DHT22;8137;48.952;8.970;2023-07-20T02:20:12;17.90;99.90
16066;DHT22;8137;48.952;8.970;2023-07-20T02:22:38;17.80;99.90
16066;DHT22;8137;48.952;8.970;2023-07-20T02:25:05;17.70;99.90
16066;DHT22;8137;48.952;8.970;2023-07-20T02:27:33;17.60;99.90
16066;DHT22;8137;48.952;8.970;2023-07-20T02:29:58;17.50;99.90
16066;DHT22;8137;48.952;8.970;2023-07-20T02:32:24;17.30;99.90
16066;DHT22;8137;48.952;8.970;2023-07-20T02:34:49;17.30;99.90
16066;DHT22;8137;48.952;8.970;2023-07-20T02:37:16;17.10;99.90
16066;DHT22;8137;48.952;8.970;2023-07-20T02:39:42;17.00;99.90
16066;DHT22;8137;48.952;8.970;2023-07-20T02:42:07;16.90;99.90
16066;DHT22;8137;48.952;8.970;2023-07-20T02:44:33;16.90;99.90
16066;DHT22;8137;48.952;8.970;2023-07-20T02:46:59;16.80;99.90
16066;DHT22;8137;48.952;8.970;2023-07-20T02:49:24;16.70;99.90
16066;DHT22;8137;48.952;8.970;2023-07-20T02:51:50;16.70;99.90
16066;DHT22;8137;48.952;8.970;2023-07-20T02:54:15;16.60;99.90
16066;DHT22;8137;48.952;8.970;2023-07-20T02:56:41;16.40;99.90
16066;DHT22;8137;48.952;8.970;2023-07-20T02:59:07;16.30;99.90
16066;DHT22;8137;48.952;8.970;2023-07-20T03:01:33;16.20;99.90
16066;DHT22;8137;48.952;8.970;2023-07-20T03:03:58;16.10;99.90
16066;DHT22;8137;48.952;8.970;2023-07-20T03:06:24;16.10;99.90
16066;DHT22;8137;48.952;8.970;2023-07-20T03:08:50;16.10;99.90
16066;DHT22;8137;48.952;8.970;2023-07-20T03:11:18;16.00;99.90
16066;DHT22;8137;48.952;8.970;2023-07-20T03:13:44;16.00;99.90
16066;DHT22;8137;48.952;8.970;2023-07-20T03:16:11;16.00;99.90
16066;DHT22;8137;48.952;8.970;2023-07-20T03:18:38;16.00;99.90
16066;DHT22;8137;48.952;8.970;2023-07-20T03:21:04;15.90;99.90
16066;DHT22;8137;48.952;8.970;2023-07-20T03:23:30;15.90;99.90
16066;DHT22;8137;48.952;8.970;2023-07-20T03:25:56;15.80;99.90
16066;DHT22;8137;48.952;8.970;2023-07-20T03:28:21;15.70;99.90
16066;DHT22;8137;48.952;8.970;2023-07-20T03:30:55;15.70;99.90
16066;DHT22;8137;48.952;8.970;2023-07-20T03:33:25;15.60;99.90
16066;DHT22;8137;48.952;8.970;2023-07-20T03:35:51;15.60;99.90
16066;DHT22;8137;48.952;8.970;2023-07-20T03:38:17;15.80;99.90
16066;DHT22;8137;48.952;8.970;2023-07-20T03:40:59;15.80;99.90
16066;DHT22;8137;48.952;8.970;2023-07-20T03:43:26;15.70;99.90
16066;DHT22;8137;48.952;8.970;2023-07-20T03:45:53;15.80;99.90
16066;DHT22;8137;48.952;8.970;2023-07-20T03:48:21;15.70;99.90
16066;DHT22;8137;48.952;8.970;2023-07-20T03:50:48;15.70;99.90
16066;DHT22;8137;48.952;8.970;2023-07-20T03:53:15;15.70;99.90
16066;DHT22;8137;48.952;8.970;2023-07-20T03:55:51;15.60;99.90
16066;DHT22;8137;48.952;8.970;2023-07-20T03:58:18;15.70;99.90
16066;DHT22;8137;48.952;8.970;2023-07-20T04:00:45;15.70;99.90
16066;DHT22;8137;48.952;8.970;2023-07-20T04:03:14;15.80;99.90
16066;DHT22;8137;48.952;8.970;2023-07-20T04:05:40;15.80;99.90
16066;DHT22;8137;48.952;8.970;2023-07-20T04:08:06;15.70;99.90
16066;DHT22;8137;48.952;8.970;2023-07-20T04:10:32;15.70;99.90
16066;DHT22;8137;48.952;8.970;2023-07-20T04:12:59;15.80;99.90
16066;DHT22;8137;48.952;8.970;2023-07-20T04:15:25;15.80;99.90
16066;DHT22;8137;48.952;8.970;2023-07-20T04:17:51;15.80;99.90
16066;DHT22;8137;48.952;8.970;2023-07-20T04:20:16;15.90;99.90
16066;DHT22;8137;48.952;8.970;2023-07-20T04:22:43;16.00;99.90
16066;DHT22;8137;48.952;8.970;2023-07-20T04:25:09;16.10;99.90
16066;DHT22;8137;48.952;8.970;2023-07-20T04:27:35;16.10;99.90
16066;DHT22;8137;48.952;8.970;2023-07-20T04:30:01;16.20;99.90
16066;DHT22;8137;48.952;8.970;2023-07-20T04:32:27;16.30;99.90
16066;DHT22;8137;48.952;8.970;2023-07-20T04:34:53;16.50;99.90
16066;DHT22;8137;48.952;8.970;2023-07-20T04:37:19;16.60;99.90
16066;DHT22;8137;48.952;8.970;2023-07-20T04:39:45;16.70;99.90
16066;DHT22;8137;48.952;8.970;2023-07-20T04:42:11;16.70;99.90
16066;DHT22;8137;48.952;8.970;2023-07-20T04:44:36;16.90;99.90
16066;DHT22;8137;48.952;8.970;2023-07-20T04:47:02;17.00;99.90
16066;DHT22;8137;48.952;8.970;2023-07-20T04:49:28;17.10;99.90
16066;DHT22;8137;48.952;8.970;2023-07-20T04:51:54;17.30;99.90
16066;DHT22;8137;48.952;8.970;2023-07-20T04:54:20;17.30;99.90
16066;DHT22;8137;48.952;8.970;2023-07-20T04:56:45;17.50;99.90
16066;DHT22;8137;48.952;8.970;2023-07-20T04:59:11;17.70;99.90
16066;DHT22;8137;48.952;8.970;2023-07-20T05:01:36;17.80;99.90
16066;DHT22;8137;48.952;8.970;2023-07-20T05:04:02;17.80;99.90
16066;DHT22;8137;48.952;8.970;2023-07-20T05:06:28;17.90;99.90
16066;DHT22;8137;48.952;8.970;2023-07-20T05:08:54;18.00;99.90
16066;DHT22;8137;48.952;8.970;2023-07-20T05:11:19;18.20;99.90
16066;DHT22;8137;48.952;8.970;2023-07-20T05:13:45;18.20;99.90
16066;DHT22;8137;48.952;8.970;2023-07-20T05:16:11;18.20;99.90
16066;DHT22;8137;48.952;8.970;2023-07-20T05:18:36;18.20;99.90
16066;DHT22;8137;48.952;8.970;2023-07-20T05:21:02;18.30;99.90
16066;DHT22;8137;48.952;8.970;2023-07-20T05:23:28;18.40;99.90
16066;DHT22;8137;48.952;8.970;2023-07-20T05:25:55;18.50;99.90
16066;DHT22;8137;48.952;8.970;2023-07-20T05:28:22;18.70;99.90
16066;DHT22;8137;48.952;8.970;2023-07-20T05:30:47;18.90;99.90
16066;DHT22;8137;48.952;8.970;2023-07-20T05:33:13;19.10;99.90
16066;DHT22;8137;48.952;8.970;2023-07-20T05:35:39;19.30;99.90
16066;DHT22;8137;48.952;8.970;2023-07-20T05:38:05;19.50;99.90
16066;DHT22;8137;48.952;8.970;2023-07-20T05:40:31;19.50;99.90
16066;DHT22;8137;48.952;8.970;2023-07-20T05:42:57;19.40;99.90
16066;DHT22;8137;48.952;8.970;2023-07-20T05:45:24;19.20;99.90
16066;DHT22;8137;48.952;8.970;2023-07-20T05:47:49;19.10;99.90
16066;DHT22;8137;48.952;8.970;2023-07-20T05:50:15;19.10;99.90
16066;DHT22;8137;48.952;8.970;2023-07-20T05:52:41;19.10;99.90
16066;DHT22;8137;48.952;8.970;2023-07-20T05:55:07;19.10;99.90
16066;DHT22;8137;48.952;8.970;2023-07-20T05:57:33;19.40;99.90
16066;DHT22;8137;48.952;8.970;2023-07-20T05:59:59;19.70;99.90
16066;DHT22;8137;48.952;8.970;2023-07-20T06:02:24;20.00;99.90
16066;DHT22;8137;48.952;8.970;2023-07-20T06:04:50;20.10;99.90
16066;DHT22;8137;48.952;8.970;2023-07-20T06:07:15;20.20;99.90
16066;DHT22;8137;48.952;8.970;2023-07-20T06:09:41;20.00;99.90
16066;DHT22;8137;48.952;8.970;2023-07-20T06:12:07;19.80;99.90
16066;DHT22;8137;48.952;8.970;2023-07-20T06:14:34;19.60;99.90
16066;DHT22;8137;48.952;8.970;2023-07-20T06:16:59;19.60;99.90
16066;DHT22;8137;48.952;8.970;2023-07-20T06:19:26;19.60;99.90
16066;DHT22;8137;48.952;8.970;2023-07-20T06:21:52;19.70;99.90
16066;DHT22;8137;48.952;8.970;2023-07-20T06:24:18;19.70;99.90
16066;DHT22;8137;48.952;8.970;2023-07-20T06:26:43;19.80;99.90
16066;DHT22;8137;48.952;8.970;2023-07-20T06:29:09;19.80;99.90
16066;DHT22;8137;48.952;8.970;2023-07-20T06:31:36;20.00;99.90
16066;DHT22;8137;48.952;8.970;2023-07-20T06:34:02;20.00;99.90
16066;DHT22;8137;48.952;8.970;2023-07-20T06:36:27;20.00;99.90
16066;DHT22;8137;48.952;8.970;2023-07-20T06:38:53;20.10;99.90
16066;DHT22;8137;48.952;8.970;2023-07-20T06:41:19;20.30;99.90
16066;DHT22;8137;48.952;8.970;2023-07-20T06:43:45;20.40;99.90
16066;DHT22;8137;48.952;8.970;2023-07-20T06:46:11;20.40;99.90
16066;DHT22;8137;48.952;8.970;2023-07-20T06:48:37;20.30;99.90
16066;DHT22;8137;48.952;8.970;2023-07-20T06:51:02;20.40;99.90
16066;DHT22;8137;48.952;8.970;2023-07-20T06:53:29;20.50;99.90
16066;DHT22;8137;48.952;8.970;2023-07-20T06:55:54;20.70;99.90
16066;DHT22;8137;48.952;8.970;2023-07-20T06:58:25;20.80;99.90
16066;DHT22;8137;48.952;8.970;2023-07-20T07:00:51;20.90;99.90
16066;DHT22;8137;48.952;8.970;2023-07-20T07:03:17;20.90;99.90
16066;DHT22;8137;48.952;8.970;2023-07-20T07:05:43;20.70;99.90
16066;DHT22;8137;48.952;8.970;2023-07-20T07:08:10;20.50;99.90
16066;DHT22;8137;48.952;8.970;2023-07-20T07:10:36;20.60;99.90
16066;DHT22;8137;48.952;8.970;2023-07-20T07:13:02;20.80;99.90
16066;DHT22;8137;48.952;8.970;2023-07-20T07:15:28;20.90;99.90
16066;DHT22;8137;48.952;8.970;2023-07-20T07:17:54;21.10;99.90
16066;DHT22;8137;48.952;8.970;2023-07-20T07:20:20;21.30;99.90
16066;DHT22;8137;48.952;8.970;2023-07-20T07:22:46;21.60;99.90
16066;DHT22;8137;48.952;8.970;2023-07-20T07:25:12;21.90;99.90
16066;DHT22;8137;48.952;8.970;2023-07-20T07:27:38;22.20;99.90
16066;DHT22;8137;48.952;8.970;2023-07-20T07:30:04;22.40;99.90
16066;DHT22;8137;48.952;8.970;2023-07-20T07:32:30;22.40;99.90
16066;DHT22;8137;48.952;8.970;2023-07-20T07:34:56;22.20;99.90
16066;DHT22;8137;48.952;8.970;2023-07-20T07:37:24;22.20;99.90
16066;DHT22;8137;48.952;8.970;2023-07-20T07:39:49;22.60;99.90
16066;DHT22;8137;48.952;8.970;2023-07-20T07:42:15;23.00;99.90
16066;DHT22;8137;48.952;8.970;2023-07-20T07:44:41;23.10;99.90
16066;DHT22;8137;48.952;8.970;2023-07-20T07:47:06;23.00;99.90
16066;DHT22;8137;48.952;8.970;2023-07-20T07:49:32;23.00;99.90
16066;DHT22;8137;48.952;8.970;2023-07-20T07:51:58;22.90;99.90
16066;DHT22;8137;48.952;8.970;2023-07-20T07:54:23;23.00;99.90
16066;DHT22;8137;48.952;8.970;2023-07-20T07:56:49;22.90;99.90
16066;DHT22;8137;48.952;8.970;2023-07-20T07:59:16;22.50;99.90
16066;DHT22;8137;48.952;8.970;2023-07-20T08:01:42;22.20;99.90
16066;DHT22;8137;48.952;8.970;2023-07-20T08:04:08;21.80;99.90
16066;DHT22;8137;48.952;8.970;2023-07-20T08:06:33;21.50;99.90
16066;DHT22;8137;48.952;8.970;2023-07-20T08:08:59;21.40;99.90
16066;DHT22;8137;48.952;8.970;2023-07-20T08:11:25;21.70;99.90
16066;DHT22;8137;48.952;8.970;2023-07-20T08:13:50;22.10;99.90
16066;DHT22;8137;48.952;8.970;2023-07-20T08:16:16;22.50;99.90
16066;DHT22;8137;48.952;8.970;2023-07-20T08:18:42;22.80;99.90
16066;DHT22;8137;48.952;8.970;2023-07-20T08:21:07;23.20;99.90
16066;DHT22;8137;48.952;8.970;2023-07-20T08:23:33;23.40;99.90
16066;DHT22;8137;48.952;8.970;2023-07-20T08:25:58;23.30;99.90
16066;DHT22;8137;48.952;8.970;2023-07-20T08:28:24;23.10;99.90
16066;DHT22;8137;48.952;8.970;2023-07-20T08:30:51;23.10;99.90
16066;DHT22;8137;48.952;8.970;2023-07-20T08:33:18;23.10;99.90
16066;DHT22;8137;48.952;8.970;2023-07-20T08:35:45;23.20;99.70
16066;DHT22;8137;48.952;8.970;2023-07-20T08:38:11;23.50;99.00
16066;DHT22;8137;48.952;8.970;2023-07-20T08:40:42;23.80;99.00
16066;DHT22;8137;48.952;8.970;2023-07-20T08:43:12;24.10;98.50
16066;DHT22;8137;48.952;8.970;2023-07-20T08:45:41;24.20;95.60
16066;DHT22;8137;48.952;8.970;2023-07-20T08:48:07;23.90;91.00
16066;DHT22;8137;48.952;8.970;2023-07-20T08:50:34;23.80;90.70
16066;DHT22;8137;48.952;8.970;2023-07-20T08:53:00;23.40;88.30
16066;DHT22;8137;48.952;8.970;2023-07-20T08:55:27;23.40;88.60
16066;DHT22;8137;48.952;8.970;2023-07-20T08:57:55;23.70;90.80
16066;DHT22;8137;48.952;8.970;2023-07-20T09:00:22;23.50;89.40
16066;DHT22;8137;48.952;8.970;2023-07-20T09:02:53;23.60;90.00
16066;DHT22;8137;48.952;8.970;2023-07-20T09:05:24;23.80;83.60
16066;DHT22;8137;48.952;8.970;2023-07-20T09:07:52;23.90;82.30
16066;DHT22;8137;48.952;8.970;2023-07-20T09:10:23;23.80;79.40
16066;DHT22;8137;48.952;8.970;2023-07-20T09:12:49;23.60;76.50
16066;DHT22;8137;48.952;8.970;2023-07-20T09:15:15;23.60;74.10
16066;DHT22;8137;48.952;8.970;2023-07-20T09:17:49;23.30;71.20
16066;DHT22;8137;48.952;8.970;2023-07-20T09:20:16;23.00;74.90
16066;DHT22;8137;48.952;8.970;2023-07-20T09:22:43;23.10;80.60
16066;DHT22;8137;48.952;8.970;2023-07-20T09:25:19;23.00;80.70
16066;DHT22;8137;48.952;8.970;2023-07-20T09:27:47;23.20;81.70
16066;DHT22;8137;48.952;8.970;2023-07-20T09:30:14;23.30;79.70
16066;DHT22;8137;48.952;8.970;2023-07-20T09:32:46;23.30;76.30
16066;DHT22;8137;48.952;8.970;2023-07-20T09:35:16;23.50;77.90
16066;DHT22;8137;48.952;8.970;2023-07-20T09:38:01;23.50;69.40
16066;DHT22;8137;48.952;8.970;2023-07-20T09:40:27;23.30;67.60
16066;DHT22;8137;48.952;8.970;2023-07-20T09:42:54;23.50;70.20
16066;DHT22;8137;48.952;8.970;2023-07-20T09:45:42;23.80;69.30
16066;DHT22;8137;48.952;8.970;2023-07-20T09:48:09;23.90;65.00
16066;DHT22;8137;48.952;8.970;2023-07-20T09:50:40;24.00;64.70
16066;DHT22;8137;48.952;8.970;2023-07-20T09:53:07;24.00;64.20
16066;DHT22;8137;48.952;8.970;2023-07-20T09:55:34;24.30;64.40
16066;DHT22;8137;48.952;8.970;2023-07-20T09:58:00;24.00;57.00
16066;DHT22;8137;48.952;8.970;2023-07-20T10:00:26;23.80;53.00
16066;DHT22;8137;48.952;8.970;2023-07-20T10:02:52;23.70;54.80
16066;DHT22;8137;48.952;8.970;2023-07-20T10:05:19;24.00;55.50
16066;DHT22;8137;48.952;8.970;2023-07-20T10:07:49;24.40;52.50
16066;DHT22;8137;48.952;8.970;2023-07-20T10:10:17;24.50;48.60
16066;DHT22;8137;48.952;8.970;2023-07-20T10:12:47;24.70;45.10
16066;DHT22;8137;48.952;8.970;2023-07-20T10:15:30;24.80;46.10
16066;DHT22;8137;48.952;8.970;2023-07-20T10:18:12;24.90;48.00
16066;DHT22;8137;48.952;8.970;2023-07-20T10:20:40;25.20;50.10
16066;DHT22;8137;48.952;8.970;2023-07-20T10:23:09;25.10;42.10
16066;DHT22;8137;48.952;8.970;2023-07-20T10:25:35;24.80;42.50
16066;DHT22;8137;48.952;8.970;2023-07-20T10:28:07;24.80;41.20
16066;DHT22;8137;48.952;8.970;2023-07-20T10:30:34;24.90;38.00
16066;DHT22;8137;48.952;8.970;2023-07-20T10:33:03;24.80;33.80
16066;DHT22;8137;48.952;8.970;2023-07-20T10:35:29;24.90;35.90
16066;DHT22;8137;48.952;8.970;2023-07-20T10:38:01;25.40;37.60
16066;DHT22;8137;48.952;8.970;2023-07-20T10:40:34;25.80;33.70
16066;DHT22;8137;48.952;8.970;2023-07-20T10:43:04;25.60;28.30
16066;DHT22;8137;48.952;8.970;2023-07-20T10:45:49;25.60;28.30
16066;DHT22;8137;48.952;8.970;2023-07-20T10:48:17;25.60;28.50
16066;DHT22;8137;48.952;8.970;2023-07-20T10:50:44;25.90;27.30
16066;DHT22;8137;48.952;8.970;2023-07-20T10:53:19;26.00;26.60
16066;DHT22;8137;48.952;8.970;2023-07-20T10:55:45;25.80;25.90
16066;DHT22;8137;48.952;8.970;2023-07-20T10:58:13;25.80;24.30
16066;DHT22;8137;48.952;8.970;2023-07-20T11:01:17;26.20;24.20
16066;DHT22;8137;48.952;8.970;2023-07-20T11:03:44;26.40;24.20
16066;DHT22;8137;48.952;8.970;2023-07-20T11:09:15;26.60;23.30
16066;DHT22;8137;48.952;8.970;2023-07-20T11:11:47;26.30;21.80
16066;DHT22;8137;48.952;8.970;2023-07-20T11:14:23;26.40;23.80
16066;DHT22;8137;48.952;8.970;2023-07-20T11:16:51;26.30;25.20
16066;DHT22;8137;48.952;8.970;2023-07-20T11:19:25;26.10;24.50
16066;DHT22;8137;48.952;8.970;2023-07-20T11:24:17;26.30;24.70
16066;DHT22;8137;48.952;8.970;2023-07-20T11:27:01;26.50;22.20
16066;DHT22;8137;48.952;8.970;2023-07-20T11:29:27;26.30;19.00
16066;DHT22;8137;48.952;8.970;2023-07-20T11:31:52;26.30;17.30
16066;DHT22;8137;48.952;8.970;2023-07-20T11:34:20;26.10;18.30
16066;DHT22;8137;48.952;8.970;2023-07-20T11:36:47;26.00;19.80
16066;DHT22;8137;48.952;8.970;2023-07-20T11:39:15;26.30;21.90
16066;DHT22;8137;48.952;8.970;2023-07-20T11:44:13;26.30;18.60
16066;DHT22;8137;48.952;8.970;2023-07-20T11:46:41;26.40;18.90
16066;DHT22;8137;48.952;8.970;2023-07-20T11:49:07;26.20;17.00
16066;DHT22;8137;48.952;8.970;2023-07-20T11:51:33;26.10;16.40
16066;DHT22;8137;48.952;8.970;2023-07-20T11:54:01;26.20;18.60
16066;DHT22;8137;48.952;8.970;2023-07-20T11:56:27;26.50;18.50
16066;DHT22;8137;48.952;8.970;2023-07-20T11:59:00;26.40;16.60
16066;DHT22;8137;48.952;8.970;2023-07-20T12:01:28;26.40;18.00
16066;DHT22;8137;48.952;8.970;2023-07-20T12:03:59;26.50;16.50
16066;DHT22;8137;48.952;8.970;2023-07-20T12:06:25;27.00;17.20
16066;DHT22;8137;48.952;8.970;2023-07-20T12:08:55;27.40;15.40
16066;DHT22;8137;48.952;8.970;2023-07-20T12:11:38;27.10;14.10
16066;DHT22;8137;48.952;8.970;2023-07-20T12:14:06;26.60;13.20
16066;DHT22;8137;48.952;8.970;2023-07-20T12:16:32;26.60;15.30
16066;DHT22;8137;48.952;8.970;2023-07-20T12:19:08;27.00;15.50
16066;DHT22;8137;48.952;8.970;2023-07-20T12:21:35;27.50;16.90
16066;DHT22;8137;48.952;8.970;2023-07-20T12:24:05;27.90;12.80
16066;DHT22;8137;48.952;8.970;2023-07-20T12:26:32;28.20;15.30
16066;DHT22;8137;48.952;8.970;2023-07-20T12:28:58;28.40;13.40
16066;DHT22;8137;48.952;8.970;2023-07-20T12:31:25;28.40;11.40
16066;DHT22;8137;48.952;8.970;2023-07-20T12:33:51;28.30;8.00
16066;DHT22;8137;48.952;8.970;2023-07-20T12:36:17;28.00;9.20
16066;DHT22;8137;48.952;8.970;2023-07-20T12:38:43;28.30;9.30
16066;DHT22;8137;48.952;8.970;2023-07-20T12:41:10;27.90;7.00
16066;DHT22;8137;48.952;8.970;2023-07-20T12:43:43;27.90;8.60
16066;DHT22;8137;48.952;8.970;2023-07-20T12:46:10;28.00;6.30
16066;DHT22;8137;48.952;8.970;2023-07-20T12:48:37;28.30;5.00
16066;DHT22;8137;48.952;8.970;2023-07-20T12:51:05;28.30;7.20
16066;DHT22;8137;48.952;8.970;2023-07-20T12:53:31;28.00;4.90
16066;DHT22;8137;48.952;8.970;2023-07-20T12:55:58;27.80;4.60
16066;DHT22;8137;48.952;8.970;2023-07-20T12:58:24;27.20;5.00
16066;DHT22;8137;48.952;8.970;2023-07-20T13:00:49;27.30;5.30
16066;DHT22;8137;48.952;8.970;2023-07-20T13:03:15;27.10;4.80
16066;DHT22;8137;48.952;8.970;2023-07-20T13:05:41;26.80;6.00
16066;DHT22;8137;48.952;8.970;2023-07-20T13:08:07;27.20;6.70
16066;DHT22;8137;48.952;8.970;2023-07-20T13:10:33;27.50;7.40
16066;DHT22;8137;48.952;8.970;2023-07-20T13:12:59;27.40;7.10
16066;DHT22;8137;48.952;8.970;2023-07-20T13:15:30;27.30;7.40
16066;DHT22;8137;48.952;8.970;2023-07-20T13:17:59;27.30;7.50
16066;DHT22;8137;48.952;8.970;2023-07-20T13:20:26;27.40;7.30
16066;DHT22;8137;48.952;8.970;2023-07-20T13:22:53;27.40;8.60
16066;DHT22;8137;48.952;8.970;2023-07-20T13:25:18;27.20;10.10
16066;DHT22;8137;48.952;8.970;2023-07-20T13:27:44;27.20;8.70
16066;DHT22;8137;48.952;8.970;2023-07-20T13:30:10;26.40;8.00
16066;DHT22;8137;48.952;8.970;2023-07-20T13:32:44;26.40;9.00
16066;DHT22;8137;48.952;8.970;2023-07-20T13:35:11;26.60;8.40
16066;DHT22;8137;48.952;8.970;2023-07-20T13:37:36;26.40;8.00
16066;DHT22;8137;48.952;8.970;2023-07-20T13:40:02;26.20;9.30
16066;DHT22;8137;48.952;8.970;2023-07-20T13:42:30;26.40;10.00
16066;DHT22;8137;48.952;8.970;2023-07-20T13:44:56;26.90;11.50
16066;DHT22;8137;48.952;8.970;2023-07-20T13:47:22;27.40;11.10
16066;DHT22;8137;48.952;8.970;2023-07-20T13:49:47;27.50;7.70
16066;DHT22;8137;48.952;8.970;2023-07-20T13:52:13;27.20;4.40
16066;DHT22;8137;48.952;8.970;2023-07-20T13:54:38;27.20;5.90
16066;DHT22;8137;48.952;8.970;2023-07-20T13:57:04;27.10;5.30
16066;DHT22;8137;48.952;8.970;2023-07-20T13:59:30;27.10;5.00
16066;DHT22;8137;48.952;8.970;2023-07-20T14:01:55;27.10;6.30
16066;DHT22;8137;48.952;8.970;2023-07-20T14:04:21;27.20;4.30
16066;DHT22;8137;48.952;8.970;2023-07-20T14:06:47;27.30;3.60
16066;DHT22;8137;48.952;8.970;2023-07-20T14:09:12;27.60;3.30
16066;DHT22;8137;48.952;8.970;2023-07-20T14:11:38;27.60;2.20
16066;DHT22;8137;48.952;8.970;2023-07-20T14:14:04;27.50;2.40
16066;DHT22;8137;48.952;8.970;2023-07-20T14:16:29;27.40;3.10
16066;DHT22;8137;48.952;8.970;2023-07-20T14:18:55;27.60;4.30
16066;DHT22;8137;48.952;8.970;2023-07-20T14:21:21;27.80;3.00
16066;DHT22;8137;48.952;8.970;2023-07-20T14:23:48;27.70;3.10
16066;DHT22;8137;48.952;8.970;2023-07-20T14:26:14;27.70;1.60
16066;DHT22;8137;48.952;8.970;2023-07-20T14:28:39;27.80;1.00
16066;DHT22;8137;48.952;8.970;2023-07-20T14:31:05;27.90;1.00
16066;DHT22;8137;48.952;8.970;2023-07-20T14:33:31;28.00;2.80
16066;DHT22;8137;48.952;8.970;2023-07-20T14:35:57;28.00;4.20
16066;DHT22;8137;48.952;8.970;2023-07-20T14:38:22;27.70;2.10
16066;DHT22;8137;48.952;8.970;2023-07-20T14:40:48;27.90;2.30
16066;DHT22;8137;48.952;8.970;2023-07-20T14:43:14;28.30;2.50
16066;DHT22;8137;48.952;8.970;2023-07-20T14:45:42;28.50;3.30
16066;DHT22;8137;48.952;8.970;2023-07-20T14:48:08;28.40;1.70
16066;DHT22;8137;48.952;8.970;2023-07-20T14:50:34;28.00;1.00
16066;DHT22;8137;48.952;8.970;2023-07-20T14:53:00;27.50;1.00
16066;DHT22;8137;48.952;8.970;2023-07-20T14:55:26;27.60;1.40
16066;DHT22;8137;48.952;8.970;2023-07-20T14:57:52;27.40;1.30
16066;DHT22;8137;48.952;8.970;2023-07-20T15:00:18;27.40;2.60
16066;DHT22;8137;48.952;8.970;2023-07-20T15:02:44;27.30;1.00
16066;DHT22;8137;48.952;8.970;2023-07-20T15:05:10;27.40;1.30
16066;DHT22;8137;48.952;8.970;2023-07-20T15:07:36;27.60;2.30
16066;DHT22;8137;48.952;8.970;2023-07-20T15:10:03;27.50;1.00
16066;DHT22;8137;48.952;8.970;2023-07-20T15:12:29;27.70;1.00
16066;DHT22;8137;48.952;8.970;2023-07-20T15:15:12;27.60;1.00
16066;DHT22;8137;48.952;8.970;2023-07-20T15:17:39;27.50;1.00
16066;DHT22;8137;48.952;8.970;2023-07-20T15:20:06;27.60;1.10
16066;DHT22;8137;48.952;8.970;2023-07-20T15:22:33;27.70;2.80
16066;DHT22;8137;48.952;8.970;2023-07-20T15:24:59;27.70;1.00
16066;DHT22;8137;48.952;8.970;2023-07-20T15:27:25;27.80;1.00
16066;DHT22;8137;48.952;8.970;2023-07-20T15:29:51;27.80;1.00
16066;DHT22;8137;48.952;8.970;2023-07-20T15:32:20;28.00;1.00
16066;DHT22;8137;48.952;8.970;2023-07-20T15:34:46;28.20;1.00
16066;DHT22;8137;48.952;8.970;2023-07-20T15:37:12;28.10;1.00
16066;DHT22;8137;48.952;8.970;2023-07-20T15:39:38;28.10;1.00
16066;DHT22;8137;48.952;8.970;2023-07-20T15:42:04;27.60;1.00
16066;DHT22;8137;48.952;8.970;2023-07-20T15:44:30;27.50;1.00
16066;DHT22;8137;48.952;8.970;2023-07-20T15:46:55;27.40;1.00
16066;DHT22;8137;48.952;8.970;2023-07-20T15:49:21;27.50;1.00
16066;DHT22;8137;48.952;8.970;2023-07-20T15:51:47;27.40;1.00
16066;DHT22;8137;48.952;8.970;2023-07-20T15:54:14;27.10;1.00
16066;DHT22;8137;48.952;8.970;2023-07-20T15:56:41;26.80;1.00
16066;DHT22;8137;48.952;8.970;2023-07-20T15:59:09;26.80;1.00
16066;DHT22;8137;48.952;8.970;2023-07-20T16:01:35;26.90;1.00
16066;DHT22;8137;48.952;8.970;2023-07-20T16:04:01;26.80;1.00
16066;DHT22;8137;48.952;8.970;2023-07-20T16:06:27;26.70;1.00